createdAt,value
2022-10-03T00:00:12.967Z,73.84
2022-10-03T00:02:50.257Z,73.46
2022-10-03T00:05:31.095Z,73.70
2022-10-03T00:08:13.777Z,73.66
2022-10-03T00:10:51.114Z,73.93
2022-10-03T00:13:37.932Z,74.06
2022-10-03T00:16:14.167Z,73.71
2022-10-03T00:18:57.873Z,73.79
2022-10-03T00:21:58.630Z,74.20
2022-10-03T00:24:35.987Z,74.13
2022-10-03T00:27:16.233Z,74.31
2022-10-03T00:29:56.760Z,74.01
2022-10-03T00:32:43.718Z,74.41
2022-10-03T00:35:20.139Z,74.27
2022-10-03T00:37:57.697Z,74.30
2022-10-03T00:40:41.042Z,74.11
2022-10-03T00:43:37.463Z,73.63
2022-10-03T00:46:11.789Z,74.24
2022-10-03T00:48:46.059Z,73.89
2022-10-03T00:51:20.324Z,74.31
2022-10-03T00:53:54.775Z,74.16
2022-10-03T00:56:38.302Z,73.78
2022-10-03T00:59:45.041Z,73.34
2022-10-03T01:02:18.923Z,73.21
2022-10-03T01:05:00.697Z,73.08
2022-10-03T01:07:50.634Z,73.34
2022-10-03T01:10:36.296Z,73.12
2022-10-03T01:13:22.146Z,72.84
2022-10-03T01:16:11.814Z,72.50
2022-10-03T01:18:43.807Z,72.30
2022-10-03T01:21:25.287Z,72.12
2022-10-03T01:23:56.699Z,72.23
2022-10-03T01:26:34.096Z,72.19
2022-10-03T01:29:29.080Z,71.84
2022-10-03T01:32:11.037Z,71.72
2022-10-03T01:34:46.291Z,71.82
2022-10-03T01:37:23.882Z,71.42
2022-10-03T01:40:17.888Z,71.56
2022-10-03T01:43:08.613Z,71.30
2022-10-03T01:45:56.022Z,71.19
2022-10-03T01:48:45.148Z,71.20
2022-10-03T01:51:20.293Z,71.45
2022-10-03T01:54:21.907Z,71.29
2022-10-03T01:56:58.488Z,71.62
2022-10-03T01:59:36.168Z,71.26
2022-10-03T02:02:25.182Z,71.78
2022-10-03T02:04:56.626Z,72.13
2022-10-03T02:07:46.735Z,72.22
2022-10-03T02:10:22.519Z,72.17
2022-10-03T02:13:20.069Z,72.77
2022-10-03T02:15:56.266Z,72.73
2022-10-03T02:18:34.872Z,73.30
2022-10-03T02:21:10.176Z,73.22
2022-10-03T02:23:44.114Z,73.39
2022-10-03T02:26:34.800Z,73.36
2022-10-03T02:29:17.971Z,73.52
2022-10-03T02:32:12.916Z,73.09
2022-10-03T02:34:44.344Z,73.81
2022-10-03T02:37:34.409Z,73.61
2022-10-03T02:40:17.811Z,73.70
2022-10-03T02:43:05.443Z,73.90
2022-10-03T02:45:55.567Z,74.31
2022-10-03T02:48:31.879Z,74.49
2022-10-03T02:51:22.401Z,74.36
2022-10-03T02:54:03.365Z,74.37
2022-10-03T02:57:03.694Z,74.36
2022-10-03T02:59:47.114Z,73.90
2022-10-03T03:02:37.391Z,74.25
2022-10-03T03:05:27.784Z,74.18
2022-10-03T03:08:28.852Z,74.25
2022-10-03T03:11:08.194Z,74.63
2022-10-03T03:13:50.980Z,74.33
2022-10-03T03:16:41.953Z,74.23
2022-10-03T03:19:18.628Z,74.03
2022-10-03T03:22:13.754Z,73.74
2022-10-03T03:25:03.970Z,73.65
2022-10-03T03:27:47.189Z,73.39
2022-10-03T03:30:20.928Z,73.42
2022-10-03T03:33:07.975Z,73.38
2022-10-03T03:35:48.620Z,73.50
2022-10-03T03:38:20.039Z,73.41
2022-10-03T03:40:57.679Z,73.41
2022-10-03T03:43:34.435Z,73.02
2022-10-03T03:46:26.570Z,72.78
2022-10-03T03:49:16.852Z,73.03
2022-10-03T03:51:57.416Z,72.75
2022-10-03T03:54:46.826Z,72.71
2022-10-03T03:57:36.816Z,72.71
2022-10-03T04:00:08.256Z,72.79
2022-10-03T04:02:45.314Z,72.63
2022-10-03T04:05:16.708Z,72.28
2022-10-03T04:07:50.336Z,72.15
2022-10-03T04:10:46.211Z,72.29
2022-10-03T04:13:36.806Z,72.06
2022-10-03T04:16:40.013Z,71.99
2022-10-03T04:19:19.075Z,72.08
2022-10-03T04:21:50.553Z,72.52
2022-10-03T04:24:21.994Z,72.03
2022-10-03T04:27:16.441Z,72.06
2022-10-03T04:29:48.071Z,72.16
2022-10-03T04:32:33.097Z,72.70
2022-10-03T04:35:17.033Z,72.60
2022-10-03T04:38:06.960Z,72.77
2022-10-03T04:40:45.178Z,72.77
2022-10-03T04:43:35.300Z,73.80
2022-10-03T04:46:25.654Z,73.76
2022-10-03T04:49:02.877Z,74.05
2022-10-03T04:51:34.304Z,74.14
2022-10-03T04:54:27.701Z,74.10
2022-10-03T04:56:59.095Z,74.24
2022-10-03T04:59:40.931Z,73.90
2022-10-03T05:02:35.334Z,74.23
2022-10-03T05:05:22.202Z,73.49
2022-10-03T05:08:06.205Z,73.59
2022-10-03T05:10:37.605Z,73.51
2022-10-03T05:13:16.390Z,73.47
2022-10-03T05:16:04.912Z,73.47
2022-10-03T05:18:56.604Z,73.26
2022-10-03T05:21:41.987Z,73.03
2022-10-03T05:24:23.639Z,72.95
2022-10-03T05:27:01.724Z,73.12
2022-10-03T05:29:45.520Z,73.41
2022-10-03T05:32:20.059Z,73.64
2022-10-03T05:35:10.951Z,73.58
2022-10-03T05:38:00.904Z,73.15
2022-10-03T05:40:37.606Z,72.93
2022-10-03T05:43:11.232Z,73.11
2022-10-03T05:45:51.762Z,73.15
2022-10-03T05:48:23.189Z,72.87
2022-10-03T05:51:13.361Z,72.88
2022-10-03T05:54:06.615Z,72.56
2022-10-03T05:56:56.584Z,72.36
2022-10-03T05:59:34.174Z,72.71
2022-10-03T06:02:24.752Z,72.43
2022-10-03T06:05:15.125Z,72.36
2022-10-03T06:08:05.082Z,72.46
2022-10-03T06:10:36.536Z,72.08
2022-10-03T06:13:26.963Z,72.17
2022-10-03T06:16:25.907Z,71.72
2022-10-03T06:19:03.786Z,68.67
2022-10-03T06:21:53.317Z,66.19
2022-10-03T06:24:43.681Z,66.24
2022-10-03T06:27:34.019Z,66.51
2022-10-03T06:30:22.209Z,67.06
2022-10-03T06:33:12.387Z,69.14
2022-10-03T06:35:43.768Z,69.60
2022-10-03T06:38:36.325Z,69.13
2022-10-03T06:41:26.611Z,67.63
2022-10-03T06:44:03.909Z,68.13
2022-10-03T06:46:41.477Z,68.35
2022-10-03T06:49:18.722Z,68.62
2022-10-03T06:52:08.761Z,68.64
2022-10-03T06:54:55.369Z,69.33
2022-10-03T06:57:29.686Z,68.79
2022-10-03T07:00:10.164Z,68.74
2022-10-03T07:02:53.573Z,69.36
2022-10-03T07:05:41.243Z,69.44
2022-10-03T07:08:18.952Z,69.84
2022-10-03T07:11:14.493Z,69.82
2022-10-03T07:13:53.336Z,69.59
2022-10-03T07:16:40.129Z,70.02
2022-10-03T07:19:30.088Z,69.78
2022-10-03T07:22:10.544Z,69.96
2022-10-03T07:25:00.796Z,70.57
2022-10-03T07:27:32.238Z,70.53
2022-10-03T07:30:08.095Z,70.07
2022-10-03T07:32:39.892Z,70.30
2022-10-03T07:35:55.809Z,70.40
2022-10-03T07:38:46.052Z,70.88
2022-10-03T07:41:29.189Z,70.85
2022-10-03T07:44:04.963Z,70.92
2022-10-03T07:46:36.407Z,70.20
2022-10-03T07:49:18.760Z,69.18
2022-10-03T07:52:09.907Z,69.08
2022-10-03T07:54:58.951Z,69.04
2022-10-03T07:57:50.723Z,68.74
2022-10-03T08:00:24.375Z,68.97
2022-10-03T08:03:14.662Z,68.45
2022-10-03T08:05:56.624Z,67.69
2022-10-03T08:08:33.544Z,67.01
2022-10-03T08:11:05.014Z,66.29
2022-10-03T08:13:49.129Z,66.20
2022-10-03T08:16:40.972Z,65.79
2022-10-03T08:19:17.608Z,66.09
2022-10-03T08:22:08.191Z,65.32
2022-10-03T08:24:49.952Z,66.48
2022-10-03T08:27:21.427Z,66.49
2022-10-03T08:30:14.083Z,66.82
2022-10-03T08:33:04.800Z,66.96
2022-10-03T08:36:00.485Z,66.29
2022-10-03T08:38:52.555Z,65.76
2022-10-03T08:41:42.878Z,65.30
2022-10-03T08:44:30.488Z,65.42
2022-10-03T08:47:20.985Z,65.03
2022-10-03T08:49:55.199Z,65.30
2022-10-03T08:52:26.634Z,64.08
2022-10-03T08:55:24.197Z,64.08
2022-10-03T08:58:18.306Z,64.00
2022-10-03T09:01:08.764Z,64.16
2022-10-03T09:03:58.813Z,62.63
2022-10-03T09:07:12.178Z,61.81
2022-10-03T09:09:37.241Z,60.30
2022-10-03T09:12:17.883Z,59.64
2022-10-03T09:14:58.223Z,58.19
2022-10-03T09:17:32.687Z,58.24
2022-10-03T09:20:27.406Z,58.04
2022-10-03T09:23:22.232Z,58.39
2022-10-03T09:26:12.312Z,58.91
2022-10-03T09:28:43.760Z,59.55
2022-10-03T09:31:50.576Z,59.05
2022-10-03T09:34:40.906Z,59.68
2022-10-03T09:37:29.043Z,59.77
2022-10-03T09:40:18.696Z,60.18
2022-10-03T09:43:08.998Z,60.28
2022-10-03T09:45:40.433Z,60.74
2022-10-03T09:48:33.696Z,60.37
2022-10-03T09:51:18.452Z,60.26
2022-10-03T09:53:53.147Z,60.72
2022-10-03T09:56:44.381Z,61.27
2022-10-03T09:59:15.877Z,61.65
2022-10-03T10:02:10.212Z,61.34
2022-10-03T10:04:54.688Z,61.39
2022-10-03T10:07:30.442Z,61.60
2022-10-03T10:10:20.517Z,61.95
2022-10-03T10:13:18.373Z,62.11
2022-10-03T10:16:19.244Z,62.29
2022-10-03T10:19:09.381Z,61.92
2022-10-03T10:21:56.124Z,61.94
2022-10-03T10:24:47.399Z,61.01
2022-10-03T10:27:35.157Z,59.48
2022-10-03T10:30:27.190Z,57.60
2022-10-03T10:33:17.406Z,56.10
2022-10-03T10:35:59.563Z,55.14
2022-10-03T10:38:49.538Z,53.21
2022-10-03T10:41:30.285Z,52.71
2022-10-03T10:44:10.878Z,52.08
2022-10-03T10:47:00.752Z,52.40
2022-10-03T10:49:57.213Z,52.38
2022-10-03T10:52:49.054Z,52.90
2022-10-03T10:55:41.813Z,54.24
2022-10-03T10:58:25.809Z,54.51
2022-10-03T11:00:59.902Z,54.95
2022-10-03T11:03:47.072Z,55.06
2022-10-03T11:06:40.312Z,55.24
2022-10-03T11:09:30.935Z,55.37
2022-10-03T11:12:21.847Z,55.60
2022-10-03T11:14:59.647Z,55.62
2022-10-03T11:17:45.708Z,54.42
2022-10-03T11:20:36.187Z,52.87
2022-10-03T11:23:16.703Z,52.08
2022-10-03T11:26:06.682Z,51.85
2022-10-03T11:28:59.106Z,50.90
2022-10-03T11:31:37.073Z,51.19
2022-10-03T11:34:11.527Z,52.01
2022-10-03T11:37:01.902Z,53.09
2022-10-03T11:39:53.453Z,53.94
2022-10-03T11:42:42.269Z,53.92
2022-10-03T11:45:26.595Z,54.16
2022-10-03T11:48:07.323Z,54.03
2022-10-03T11:50:41.834Z,53.23
2022-10-03T11:53:23.305Z,53.80
2022-10-03T11:56:03.354Z,53.44
2022-10-03T11:58:42.145Z,53.59
2022-10-03T12:01:28.983Z,53.62
2022-10-03T12:04:10.537Z,53.88
2022-10-03T12:07:19.502Z,53.26
2022-10-03T12:10:00.181Z,52.86
2022-10-03T12:12:46.040Z,52.25
2022-10-03T12:15:40.908Z,50.17
2022-10-03T12:18:15.120Z,49.53
2022-10-03T12:20:56.957Z,49.18
2022-10-03T12:23:37.801Z,47.00
2022-10-03T12:26:15.513Z,47.93
2022-10-03T12:28:51.362Z,48.00
2022-10-03T12:32:39.187Z,48.39
2022-10-03T12:35:40.990Z,48.99
2022-10-03T12:38:48.905Z,48.85
2022-10-03T12:42:03.322Z,47.37
2022-10-03T12:45:02.423Z,46.65
2022-10-03T12:47:57.610Z,46.33
2022-10-03T12:51:01.816Z,44.90
2022-10-03T12:54:26.910Z,45.37
2022-10-03T12:57:38.428Z,45.37
2022-10-03T13:00:24.014Z,44.35
2022-10-03T13:03:07.408Z,44.58
2022-10-03T13:05:39.461Z,45.69
2022-10-03T13:08:38.658Z,46.09
2022-10-03T13:11:19.372Z,45.99
2022-10-03T13:14:24.781Z,46.76
2022-10-03T13:17:14.765Z,47.20
2022-10-03T13:19:59.176Z,46.38
2022-10-03T13:22:40.186Z,46.59
2022-10-03T13:25:24.933Z,47.14
2022-10-03T13:28:16.306Z,47.35
2022-10-03T13:30:54.653Z,47.55
2022-10-03T13:33:30.093Z,48.26
2022-10-03T13:36:18.186Z,48.04
2022-10-03T13:39:03.228Z,48.95
2022-10-03T13:42:01.574Z,48.86
2022-10-03T13:44:55.610Z,49.36
2022-10-03T13:47:48.765Z,49.30
2022-10-03T13:50:49.514Z,49.81
2022-10-03T13:53:53.251Z,49.05
2022-10-03T13:56:47.034Z,49.09
2022-10-03T13:59:43.221Z,49.66
2022-10-03T14:02:44.039Z,49.61
2022-10-03T14:05:34.245Z,50.09
2022-10-03T14:08:14.961Z,52.21
2022-10-03T14:11:27.258Z,50.73
2022-10-03T14:14:46.886Z,52.56
2022-10-03T14:17:42.413Z,52.14
2022-10-03T14:20:37.407Z,50.63
2022-10-03T14:23:18.669Z,52.05
2022-10-03T14:26:05.508Z,51.29
2022-10-03T14:28:49.956Z,50.77
2022-10-03T14:31:36.526Z,50.60
2022-10-03T14:34:21.463Z,50.70
2022-10-03T14:36:58.859Z,51.18
2022-10-03T14:40:06.626Z,51.52
2022-10-03T14:43:20.843Z,51.90
2022-10-03T14:45:57.856Z,52.45
2022-10-03T14:48:45.150Z,52.91
2022-10-03T14:51:22.758Z,53.25
2022-10-03T14:54:17.718Z,53.45
2022-10-03T14:56:52.889Z,53.89
2022-10-03T14:59:33.786Z,54.24
2022-10-03T15:02:37.732Z,54.05
2022-10-03T15:05:17.269Z,54.34
2022-10-03T15:07:50.483Z,54.11
2022-10-03T15:10:26.667Z,54.23
2022-10-03T15:13:09.586Z,54.81
2022-10-03T15:15:43.218Z,54.03
2022-10-03T15:18:18.722Z,53.87
2022-10-03T15:20:57.115Z,54.20
2022-10-03T15:23:46.451Z,54.45
2022-10-03T15:26:23.554Z,54.25
2022-10-03T15:29:02.261Z,54.52
2022-10-03T15:31:36.990Z,54.63
2022-10-03T15:34:25.076Z,54.99
2022-10-03T15:37:07.113Z,55.45
2022-10-03T15:39:42.989Z,55.39
2022-10-03T15:42:25.816Z,55.33
2022-10-03T15:45:02.172Z,55.19
2022-10-03T15:47:39.850Z,55.28
2022-10-03T15:50:25.560Z,55.41
2022-10-03T15:53:17.925Z,55.57
2022-10-03T15:56:02.935Z,55.78
2022-10-03T15:58:37.358Z,55.60
2022-10-03T16:01:24.411Z,55.62
2022-10-03T16:03:59.072Z,55.87
2022-10-03T16:06:39.077Z,55.77
2022-10-03T16:09:37.184Z,55.75
2022-10-03T16:12:41.699Z,55.77
2022-10-03T16:15:21.901Z,56.17
2022-10-03T16:18:02.295Z,55.41
2022-10-03T16:21:08.248Z,55.86
2022-10-03T16:23:44.526Z,56.16
2022-10-03T16:26:30.875Z,56.28
2022-10-03T16:29:12.998Z,56.34
2022-10-03T16:31:55.781Z,56.15
2022-10-03T16:34:31.101Z,56.49
2022-10-03T16:37:14.962Z,56.56
2022-10-03T16:39:54.480Z,56.26
2022-10-03T16:42:31.665Z,56.54
2022-10-03T16:45:08.417Z,56.62
2022-10-03T16:47:41.074Z,56.43
2022-10-03T16:50:25.564Z,56.74
2022-10-03T16:52:59.443Z,56.64
2022-10-03T16:55:46.645Z,56.74
2022-10-03T16:58:26.031Z,56.97
2022-10-03T17:01:26.398Z,56.77
2022-10-03T17:04:17.016Z,57.15
2022-10-03T17:06:51.284Z,57.10
2022-10-03T17:09:46.387Z,57.47
2022-10-03T17:12:39.040Z,57.01
2022-10-03T17:15:26.753Z,57.10
2022-10-03T17:18:11.505Z,57.40
2022-10-03T17:20:50.277Z,57.32
2022-10-03T17:23:33.991Z,57.39
2022-10-03T17:26:14.510Z,57.47
2022-10-03T17:28:55.926Z,57.27
2022-10-03T17:31:44.314Z,57.58
2022-10-03T17:34:29.066Z,57.29
2022-10-03T17:37:40.429Z,57.39
2022-10-03T17:40:22.342Z,57.67
2022-10-03T17:43:02.935Z,57.82
2022-10-03T17:45:59.767Z,57.28
2022-10-03T17:49:00.409Z,57.68
2022-10-03T17:51:39.859Z,57.92
2022-10-03T17:54:19.052Z,57.84
2022-10-03T17:56:57.249Z,58.38
2022-10-03T17:59:38.688Z,58.27
2022-10-03T18:02:24.390Z,58.50
2022-10-03T18:05:07.314Z,58.44
2022-10-03T18:07:43.335Z,58.58
2022-10-03T18:10:19.938Z,58.40
2022-10-03T18:13:00.138Z,58.52
2022-10-03T18:16:01.070Z,58.45
2022-10-03T18:19:03.593Z,58.41
2022-10-03T18:22:02.560Z,58.70
2022-10-03T18:25:27.313Z,58.83
2022-10-03T18:28:12.835Z,59.44
2022-10-03T18:31:00.264Z,59.61
2022-10-03T18:33:40.008Z,59.34
2022-10-03T18:36:19.165Z,59.69
2022-10-03T18:38:54.561Z,60.12
2022-10-03T18:41:29.375Z,59.94
2022-10-03T18:44:01.690Z,59.98
2022-10-03T18:46:41.159Z,59.86
2022-10-03T18:49:34.438Z,60.22
2022-10-03T18:52:19.403Z,60.50
2022-10-03T18:54:58.158Z,60.51
2022-10-03T18:57:32.926Z,60.44
2022-10-03T19:00:18.362Z,60.13
2022-10-03T19:03:07.830Z,60.33
2022-10-03T19:05:48.622Z,60.21
2022-10-03T19:08:29.695Z,60.08
2022-10-03T19:11:22.556Z,60.05
2022-10-03T19:13:58.994Z,60.26
2022-10-03T19:17:04.336Z,60.37
2022-10-03T19:20:12.271Z,60.98
2022-10-03T19:23:00.361Z,61.13
2022-10-03T19:25:37.332Z,60.63
2022-10-03T19:28:28.714Z,60.85
2022-10-03T19:31:16.687Z,60.58
2022-10-03T19:33:58.230Z,60.58
2022-10-03T19:36:37.783Z,60.48
2022-10-03T19:39:15.702Z,61.10
2022-10-03T19:41:54.481Z,60.97
2022-10-03T19:44:27.803Z,61.01
2022-10-03T19:47:25.858Z,60.94
2022-10-03T19:50:15.900Z,61.30
2022-10-03T19:52:51.914Z,60.93
2022-10-03T19:55:33.370Z,61.02
2022-10-03T19:58:08.403Z,61.22
2022-10-03T20:00:54.403Z,61.56
2022-10-03T20:03:31.889Z,62.15
2022-10-03T20:06:15.423Z,62.36
2022-10-03T20:09:04.032Z,62.22
2022-10-03T20:11:46.595Z,62.15
2022-10-03T20:14:26.919Z,62.10
2022-10-03T20:17:03.027Z,62.34
2022-10-03T20:19:37.497Z,62.56
2022-10-03T20:22:14.333Z,62.49
2022-10-03T20:24:46.202Z,63.08
2022-10-03T20:27:27.075Z,63.93
2022-10-03T20:30:07.703Z,64.51
2022-10-03T20:32:44.509Z,64.80
2022-10-03T20:35:36.849Z,65.05
2022-10-03T20:38:30.175Z,65.52
2022-10-03T20:41:19.795Z,65.63
2022-10-03T20:44:09.120Z,66.03
2022-10-03T20:46:53.736Z,65.59
2022-10-03T20:49:33.091Z,65.97
2022-10-03T20:52:16.920Z,66.23
2022-10-03T20:55:03.128Z,66.40
2022-10-03T20:57:58.357Z,66.51
2022-10-03T21:00:31.207Z,66.29
2022-10-03T21:03:26.382Z,66.95
2022-10-03T21:05:59.893Z,67.61
2022-10-03T21:08:40.835Z,67.73
2022-10-03T21:11:23.220Z,68.66
2022-10-03T21:14:25.786Z,69.09
2022-10-03T21:16:59.460Z,69.08
2022-10-03T21:19:42.880Z,69.78
2022-10-03T21:22:21.828Z,70.27
2022-10-03T21:24:59.721Z,71.30
2022-10-03T21:27:33.355Z,70.91
2022-10-03T21:30:17.729Z,71.08
2022-10-03T21:33:11.633Z,71.87
2022-10-03T21:35:44.255Z,71.95
2022-10-03T21:38:26.810Z,72.33
2022-10-03T21:41:20.010Z,72.44
2022-10-03T21:43:53.631Z,72.03
2022-10-03T21:46:34.631Z,72.45
2022-10-03T21:49:31.512Z,72.76
2022-10-03T21:52:18.212Z,72.85
2022-10-03T21:55:45.358Z,72.60
2022-10-03T21:58:49.816Z,72.35
2022-10-03T22:01:42.646Z,72.34
2022-10-03T22:04:20.469Z,72.85
2022-10-03T22:07:02.977Z,72.70
2022-10-03T22:09:36.514Z,72.43
2022-10-03T22:12:10.585Z,72.28
2022-10-03T22:14:45.979Z,72.63
2022-10-03T22:17:39.645Z,72.57
2022-10-03T22:20:32.694Z,72.10
2022-10-03T22:23:44.531Z,71.53
2022-10-03T22:26:24.273Z,71.76
2022-10-03T22:29:27.340Z,71.75
2022-10-03T22:32:13.050Z,71.40
2022-10-03T22:35:05.087Z,71.68
2022-10-03T22:37:37.969Z,71.14
2022-10-03T22:40:09.873Z,70.91
2022-10-03T22:42:49.610Z,71.03
2022-10-03T22:45:24.761Z,70.93
2022-10-03T22:48:00.967Z,70.81
2022-10-03T22:50:40.116Z,70.57
2022-10-03T22:53:15.360Z,70.66
2022-10-03T22:55:51.073Z,70.45
2022-10-03T22:58:24.924Z,70.56
2022-10-03T23:00:59.836Z,70.60
2022-10-03T23:03:34.195Z,70.49
2022-10-03T23:06:41.473Z,70.54
2022-10-03T23:09:39.338Z,70.43
2022-10-03T23:12:12.133Z,70.14
2022-10-03T23:14:49.858Z,70.20
2022-10-03T23:17:52.193Z,70.49
2022-10-03T23:20:45.596Z,69.98
2022-10-03T23:23:24.280Z,70.32
2022-10-03T23:25:58.888Z,70.12
2022-10-03T23:29:02.894Z,70.00
2022-10-03T23:31:54.773Z,69.42
2022-10-03T23:34:35.259Z,69.59
2022-10-03T23:37:15.648Z,69.49
2022-10-03T23:39:53.325Z,69.94
2022-10-03T23:42:37.688Z,69.73
2022-10-03T23:45:13.816Z,69.33
2022-10-03T23:47:51.121Z,69.60
2022-10-03T23:50:42.889Z,69.18
2022-10-03T23:53:38.829Z,69.22
2022-10-03T23:56:22.527Z,69.37
2022-10-03T23:59:05.000Z,69.59
